sensor_id;sensor_type;location;lat;lon;timestamp;P1;durP1;ratioP1;P2;durP2;ratioP2
19951;SDS011;10137;49.406;19.484;2024-03-29T00:01:37;0.40;;;0.40;;
19951;SDS011;10137;49.406;19.484;2024-03-29T00:04:02;1.17;;;0.40;;
19951;SDS011;10137;49.406;19.484;2024-03-29T00:06:28;0.63;;;0.40;;
19951;SDS011;10137;49.406;19.484;2024-03-29T00:08:54;0.60;;;0.53;;
19951;SDS011;10137;49.406;19.484;2024-03-29T00:11:20;0.50;;;0.40;;
19951;SDS011;10137;49.406;19.484;2024-03-29T00:13:45;0.40;;;0.40;;
19951;SDS011;10137;49.406;19.484;2024-03-29T00:16:11;0.20;;;0.20;;
19951;SDS011;10137;49.406;19.484;2024-03-29T00:18:37;0.30;;;0.30;;
19951;SDS011;10137;49.406;19.484;2024-03-29T00:21:03;0.53;;;0.40;;
19951;SDS011;10137;49.406;19.484;2024-03-29T00:23:28;0.57;;;0.40;;
19951;SDS011;10137;49.406;19.484;2024-03-29T00:25:54;0.40;;;0.40;;
19951;SDS011;10137;49.406;19.484;2024-03-29T00:28:20;1.40;;;0.57;;
19951;SDS011;10137;49.406;19.484;2024-03-29T00:30:46;0.60;;;0.50;;
19951;SDS011;10137;49.406;19.484;2024-03-29T00:33:11;0.40;;;0.40;;
19951;SDS011;10137;49.406;19.484;2024-03-29T00:35:37;0.70;;;0.57;;
19951;SDS011;10137;49.406;19.484;2024-03-29T00:38:03;0.60;;;0.40;;
19951;SDS011;10137;49.406;19.484;2024-03-29T00:40:29;1.33;;;0.50;;
19951;SDS011;10137;49.406;19.484;2024-03-29T00:42:54;0.40;;;0.40;;
19951;SDS011;10137;49.406;19.484;2024-03-29T00:45:20;0.50;;;0.50;;
19951;SDS011;10137;49.406;19.484;2024-03-29T00:47:46;0.30;;;0.30;;
19951;SDS011;10137;49.406;19.484;2024-03-29T00:50:11;0.40;;;0.40;;
19951;SDS011;10137;49.406;19.484;2024-03-29T00:52:37;0.40;;;0.40;;
19951;SDS011;10137;49.406;19.484;2024-03-29T00:55:03;0.40;;;0.40;;
19951;SDS011;10137;49.406;19.484;2024-03-29T00:57:29;0.40;;;0.40;;
19951;SDS011;10137;49.406;19.484;2024-03-29T00:59:55;0.50;;;0.40;;
19951;SDS011;10137;49.406;19.484;2024-03-29T01:02:21;0.77;;;0.50;;
19951;SDS011;10137;49.406;19.484;2024-03-29T01:04:47;0.50;;;0.50;;
19951;SDS011;10137;49.406;19.484;2024-03-29T01:07:13;0.40;;;0.40;;
19951;SDS011;10137;49.406;19.484;2024-03-29T01:09:38;0.60;;;0.30;;
19951;SDS011;10137;49.406;19.484;2024-03-29T01:12:04;0.67;;;0.67;;
19951;SDS011;10137;49.406;19.484;2024-03-29T01:14:30;1.63;;;0.90;;
19951;SDS011;10137;49.406;19.484;2024-03-29T01:16:56;0.57;;;0.57;;
19951;SDS011;10137;49.406;19.484;2024-03-29T01:19:21;0.70;;;0.70;;
19951;SDS011;10137;49.406;19.484;2024-03-29T01:21:47;0.70;;;0.70;;
19951;SDS011;10137;49.406;19.484;2024-03-29T01:24:14;0.77;;;0.67;;
19951;SDS011;10137;49.406;19.484;2024-03-29T01:26:40;0.90;;;0.80;;
19951;SDS011;10137;49.406;19.484;2024-03-29T01:29:05;1.07;;;0.80;;
19951;SDS011;10137;49.406;19.484;2024-03-29T01:31:31;0.83;;;0.60;;
19951;SDS011;10137;49.406;19.484;2024-03-29T01:33:57;3.33;;;0.70;;
19951;SDS011;10137;49.406;19.484;2024-03-29T01:36:23;0.47;;;0.47;;
19951;SDS011;10137;49.406;19.484;2024-03-29T01:38:48;0.60;;;0.57;;
19951;SDS011;10137;49.406;19.484;2024-03-29T01:41:14;0.70;;;0.60;;
19951;SDS011;10137;49.406;19.484;2024-03-29T01:43:40;1.33;;;0.63;;
19951;SDS011;10137;49.406;19.484;2024-03-29T01:46:06;1.40;;;0.73;;
19951;SDS011;10137;49.406;19.484;2024-03-29T01:48:33;1.17;;;0.90;;
19951;SDS011;10137;49.406;19.484;2024-03-29T01:51:00;0.87;;;0.80;;
19951;SDS011;10137;49.406;19.484;2024-03-29T01:53:27;1.43;;;0.70;;
19951;SDS011;10137;49.406;19.484;2024-03-29T01:55:55;1.27;;;0.90;;
19951;SDS011;10137;49.406;19.484;2024-03-29T01:58:23;1.17;;;0.90;;
19951;SDS011;10137;49.406;19.484;2024-03-29T02:00:51;0.80;;;0.80;;
19951;SDS011;10137;49.406;19.484;2024-03-29T02:03:20;1.53;;;0.80;;
19951;SDS011;10137;49.406;19.484;2024-03-29T02:05:48;2.47;;;0.90;;
19951;SDS011;10137;49.406;19.484;2024-03-29T02:08:15;2.10;;;0.90;;
19951;SDS011;10137;49.406;19.484;2024-03-29T02:10:43;0.83;;;0.80;;
19951;SDS011;10137;49.406;19.484;2024-03-29T02:13:11;0.80;;;0.80;;
19951;SDS011;10137;49.406;19.484;2024-03-29T02:15:38;0.93;;;0.80;;
19951;SDS011;10137;49.406;19.484;2024-03-29T02:18:06;1.00;;;0.90;;
19951;SDS011;10137;49.406;19.484;2024-03-29T02:20:33;0.90;;;0.80;;
19951;SDS011;10137;49.406;19.484;2024-03-29T02:25:29;1.30;;;0.90;;
19951;SDS011;10137;49.406;19.484;2024-03-29T02:27:55;0.93;;;0.87;;
19951;SDS011;10137;49.406;19.484;2024-03-29T02:30:22;1.67;;;1.00;;
19951;SDS011;10137;49.406;19.484;2024-03-29T02:32:49;1.00;;;0.90;;
19951;SDS011;10137;49.406;19.484;2024-03-29T02:35:16;1.10;;;0.90;;
19951;SDS011;10137;49.406;19.484;2024-03-29T02:37:43;1.27;;;1.07;;
19951;SDS011;10137;49.406;19.484;2024-03-29T02:40:10;0.97;;;0.97;;
19951;SDS011;10137;49.406;19.484;2024-03-29T02:42:37;1.20;;;1.10;;
19951;SDS011;10137;49.406;19.484;2024-03-29T02:45:03;1.07;;;0.90;;
19951;SDS011;10137;49.406;19.484;2024-03-29T02:47:30;1.23;;;1.00;;
19951;SDS011;10137;49.406;19.484;2024-03-29T02:49:57;0.90;;;0.90;;
19951;SDS011;10137;49.406;19.484;2024-03-29T02:52:23;3.10;;;1.20;;
19951;SDS011;10137;49.406;19.484;2024-03-29T02:54:49;1.67;;;1.30;;
19951;SDS011;10137;49.406;19.484;2024-03-29T02:57:15;1.13;;;1.03;;
19951;SDS011;10137;49.406;19.484;2024-03-29T02:59:42;2.13;;;1.40;;
19951;SDS011;10137;49.406;19.484;2024-03-29T03:02:08;1.37;;;1.27;;
19951;SDS011;10137;49.406;19.484;2024-03-29T03:04:34;1.20;;;1.10;;
19951;SDS011;10137;49.406;19.484;2024-03-29T03:07:00;2.10;;;1.30;;
19951;SDS011;10137;49.406;19.484;2024-03-29T03:09:52;1.20;;;1.10;;
19951;SDS011;10137;49.406;19.484;2024-03-29T03:12:36;1.17;;;1.00;;
19951;SDS011;10137;49.406;19.484;2024-03-29T03:15:02;3.27;;;1.20;;
19951;SDS011;10137;49.406;19.484;2024-03-29T03:17:30;1.30;;;1.20;;
19951;SDS011;10137;49.406;19.484;2024-03-29T03:19:57;1.20;;;1.10;;
19951;SDS011;10137;49.406;19.484;2024-03-29T03:22:23;1.33;;;1.20;;
19951;SDS011;10137;49.406;19.484;2024-03-29T03:24:50;1.43;;;1.30;;
19951;SDS011;10137;49.406;19.484;2024-03-29T03:27:16;1.50;;;1.40;;
19951;SDS011;10137;49.406;19.484;2024-03-29T03:29:43;1.83;;;1.40;;
19951;SDS011;10137;49.406;19.484;2024-03-29T03:32:08;2.40;;;1.40;;
19951;SDS011;10137;49.406;19.484;2024-03-29T03:34:35;2.13;;;1.23;;
19951;SDS011;10137;49.406;19.484;2024-03-29T03:37:02;1.30;;;1.20;;
19951;SDS011;10137;49.406;19.484;2024-03-29T03:39:29;1.50;;;1.40;;
19951;SDS011;10137;49.406;19.484;2024-03-29T03:41:55;1.87;;;1.40;;
19951;SDS011;10137;49.406;19.484;2024-03-29T03:44:21;2.07;;;1.87;;
19951;SDS011;10137;49.406;19.484;2024-03-29T03:46:49;2.10;;;1.57;;
19951;SDS011;10137;49.406;19.484;2024-03-29T03:49:17;2.13;;;1.90;;
19951;SDS011;10137;49.406;19.484;2024-03-29T03:51:42;1.70;;;1.50;;
19951;SDS011;10137;49.406;19.484;2024-03-29T03:54:09;3.20;;;1.90;;
19951;SDS011;10137;49.406;19.484;2024-03-29T03:56:35;1.70;;;1.60;;
19951;SDS011;10137;49.406;19.484;2024-03-29T03:59:01;1.77;;;1.30;;
19951;SDS011;10137;49.406;19.484;2024-03-29T04:01:27;2.33;;;1.67;;
19951;SDS011;10137;49.406;19.484;2024-03-29T04:03:54;2.23;;;1.40;;
19951;SDS011;10137;49.406;19.484;2024-03-29T04:06:19;1.93;;;1.43;;
19951;SDS011;10137;49.406;19.484;2024-03-29T04:08:46;1.97;;;1.43;;
19951;SDS011;10137;49.406;19.484;2024-03-29T04:11:12;1.70;;;1.40;;
19951;SDS011;10137;49.406;19.484;2024-03-29T04:13:38;1.73;;;1.47;;
19951;SDS011;10137;49.406;19.484;2024-03-29T04:16:06;2.63;;;1.50;;
19951;SDS011;10137;49.406;19.484;2024-03-29T04:18:33;2.07;;;1.60;;
19951;SDS011;10137;49.406;19.484;2024-03-29T04:20:59;1.70;;;1.40;;
19951;SDS011;10137;49.406;19.484;2024-03-29T04:23:27;1.73;;;1.37;;
19951;SDS011;10137;49.406;19.484;2024-03-29T04:25:53;2.47;;;1.57;;
19951;SDS011;10137;49.406;19.484;2024-03-29T04:28:23;2.17;;;1.47;;
19951;SDS011;10137;49.406;19.484;2024-03-29T04:30:53;1.67;;;1.57;;
19951;SDS011;10137;49.406;19.484;2024-03-29T04:33:21;1.70;;;1.43;;
19951;SDS011;10137;49.406;19.484;2024-03-29T04:35:54;1.77;;;1.40;;
19951;SDS011;10137;49.406;19.484;2024-03-29T04:38:21;1.50;;;1.40;;
19951;SDS011;10137;49.406;19.484;2024-03-29T04:40:49;2.43;;;1.73;;
19951;SDS011;10137;49.406;19.484;2024-03-29T04:43:17;1.70;;;1.60;;
19951;SDS011;10137;49.406;19.484;2024-03-29T04:45:44;2.27;;;1.73;;
19951;SDS011;10137;49.406;19.484;2024-03-29T04:48:11;1.70;;;1.60;;
19951;SDS011;10137;49.406;19.484;2024-03-29T04:50:38;1.77;;;1.50;;
19951;SDS011;10137;49.406;19.484;2024-03-29T04:53:06;2.60;;;1.37;;
19951;SDS011;10137;49.406;19.484;2024-03-29T04:55:34;3.70;;;1.60;;
19951;SDS011;10137;49.406;19.484;2024-03-29T04:58:01;2.27;;;1.87;;
19951;SDS011;10137;49.406;19.484;2024-03-29T05:00:27;2.10;;;1.57;;
19951;SDS011;10137;49.406;19.484;2024-03-29T05:02:54;1.90;;;1.60;;
19951;SDS011;10137;49.406;19.484;2024-03-29T05:05:21;1.57;;;1.30;;
19951;SDS011;10137;49.406;19.484;2024-03-29T05:07:47;1.70;;;1.30;;
19951;SDS011;10137;49.406;19.484;2024-03-29T05:10:14;1.50;;;1.40;;
19951;SDS011;10137;49.406;19.484;2024-03-29T05:12:41;3.77;;;1.47;;
19951;SDS011;10137;49.406;19.484;2024-03-29T05:15:08;2.00;;;1.30;;
19951;SDS011;10137;49.406;19.484;2024-03-29T05:17:35;1.90;;;1.60;;
19951;SDS011;10137;49.406;19.484;2024-03-29T05:20:02;1.60;;;1.50;;
19951;SDS011;10137;49.406;19.484;2024-03-29T05:22:29;1.63;;;1.53;;
19951;SDS011;10137;49.406;19.484;2024-03-29T05:24:56;2.03;;;1.50;;
19951;SDS011;10137;49.406;19.484;2024-03-29T05:27:22;2.00;;;1.47;;
19951;SDS011;10137;49.406;19.484;2024-03-29T05:29:49;2.03;;;1.57;;
19951;SDS011;10137;49.406;19.484;2024-03-29T05:32:16;1.87;;;1.43;;
19951;SDS011;10137;49.406;19.484;2024-03-29T05:34:43;1.60;;;1.30;;
19951;SDS011;10137;49.406;19.484;2024-03-29T05:37:10;2.00;;;1.30;;
19951;SDS011;10137;49.406;19.484;2024-03-29T05:39:37;3.17;;;1.20;;
19951;SDS011;10137;49.406;19.484;2024-03-29T05:42:03;3.23;;;1.30;;
19951;SDS011;10137;49.406;19.484;2024-03-29T05:44:30;1.37;;;1.27;;
19951;SDS011;10137;49.406;19.484;2024-03-29T05:46:57;1.40;;;1.20;;
19951;SDS011;10137;49.406;19.484;2024-03-29T05:49:23;1.47;;;1.30;;
19951;SDS011;10137;49.406;19.484;2024-03-29T05:51:50;3.03;;;1.40;;
19951;SDS011;10137;49.406;19.484;2024-03-29T05:54:17;2.03;;;1.40;;
19951;SDS011;10137;49.406;19.484;2024-03-29T05:56:43;3.20;;;1.80;;
19951;SDS011;10137;49.406;19.484;2024-03-29T05:59:10;2.17;;;1.23;;
19951;SDS011;10137;49.406;19.484;2024-03-29T06:01:37;2.93;;;1.43;;
19951;SDS011;10137;49.406;19.484;2024-03-29T06:04:04;1.50;;;1.27;;
19951;SDS011;10137;49.406;19.484;2024-03-29T06:06:38;1.93;;;1.30;;
19951;SDS011;10137;49.406;19.484;2024-03-29T06:09:05;2.47;;;1.30;;
19951;SDS011;10137;49.406;19.484;2024-03-29T06:11:32;1.50;;;1.30;;
19951;SDS011;10137;49.406;19.484;2024-03-29T06:13:58;1.30;;;1.20;;
19951;SDS011;10137;49.406;19.484;2024-03-29T06:16:43;1.93;;;1.13;;
19951;SDS011;10137;49.406;19.484;2024-03-29T06:19:27;1.47;;;1.20;;
19951;SDS011;10137;49.406;19.484;2024-03-29T06:21:53;2.40;;;1.30;;
19951;SDS011;10137;49.406;19.484;2024-03-29T06:24:20;1.97;;;1.37;;
19951;SDS011;10137;49.406;19.484;2024-03-29T06:26:47;3.40;;;1.60;;
19951;SDS011;10137;49.406;19.484;2024-03-29T06:29:14;1.37;;;1.20;;
19951;SDS011;10137;49.406;19.484;2024-03-29T06:31:40;1.20;;;0.97;;
19951;SDS011;10137;49.406;19.484;2024-03-29T06:34:07;2.27;;;1.10;;
19951;SDS011;10137;49.406;19.484;2024-03-29T06:36:33;2.43;;;1.20;;
19951;SDS011;10137;49.406;19.484;2024-03-29T06:39:02;4.17;;;1.20;;
19951;SDS011;10137;49.406;19.484;2024-03-29T06:41:29;1.50;;;1.17;;
19951;SDS011;10137;49.406;19.484;2024-03-29T06:43:55;2.00;;;1.30;;
19951;SDS011;10137;49.406;19.484;2024-03-29T06:46:22;2.60;;;1.30;;
19951;SDS011;10137;49.406;19.484;2024-03-29T06:48:49;1.13;;;1.03;;
19951;SDS011;10137;49.406;19.484;2024-03-29T06:51:15;1.47;;;0.90;;
19951;SDS011;10137;49.406;19.484;2024-03-29T06:53:43;3.73;;;1.17;;
19951;SDS011;10137;49.406;19.484;2024-03-29T06:56:10;1.80;;;1.00;;
19951;SDS011;10137;49.406;19.484;2024-03-29T06:58:36;1.97;;;0.90;;
19951;SDS011;10137;49.406;19.484;2024-03-29T07:01:03;1.03;;;0.93;;
19951;SDS011;10137;49.406;19.484;2024-03-29T07:03:30;2.90;;;1.10;;
19951;SDS011;10137;49.406;19.484;2024-03-29T07:05:56;1.43;;;0.97;;
19951;SDS011;10137;49.406;19.484;2024-03-29T07:08:23;1.20;;;1.10;;
19951;SDS011;10137;49.406;19.484;2024-03-29T07:10:59;1.13;;;0.80;;
19951;SDS011;10137;49.406;19.484;2024-03-29T07:13:28;1.30;;;0.70;;
19951;SDS011;10137;49.406;19.484;2024-03-29T07:15:56;1.50;;;0.97;;
19951;SDS011;10137;49.406;19.484;2024-03-29T07:18:23;1.97;;;0.93;;
19951;SDS011;10137;49.406;19.484;2024-03-29T07:20:50;1.77;;;0.80;;
19951;SDS011;10137;49.406;19.484;2024-03-29T07:23:17;1.03;;;0.60;;
19951;SDS011;10137;49.406;19.484;2024-03-29T07:25:45;1.90;;;0.63;;
19951;SDS011;10137;49.406;19.484;2024-03-29T07:28:22;1.57;;;0.70;;
19951;SDS011;10137;49.406;19.484;2024-03-29T07:30:49;0.63;;;0.50;;
19951;SDS011;10137;49.406;19.484;2024-03-29T07:33:17;0.67;;;0.67;;
19951;SDS011;10137;49.406;19.484;2024-03-29T07:35:46;1.90;;;0.50;;
19951;SDS011;10137;49.406;19.484;2024-03-29T07:38:13;1.00;;;0.50;;
19951;SDS011;10137;49.406;19.484;2024-03-29T07:40:42;1.40;;;0.70;;
19951;SDS011;10137;49.406;19.484;2024-03-29T07:43:09;1.00;;;0.67;;
19951;SDS011;10137;49.406;19.484;2024-03-29T07:45:38;2.00;;;0.40;;
19951;SDS011;10137;49.406;19.484;2024-03-29T07:48:13;0.60;;;0.60;;
19951;SDS011;10137;49.406;19.484;2024-03-29T07:50:41;0.40;;;0.40;;
19951;SDS011;10137;49.406;19.484;2024-03-29T07:53:08;0.83;;;0.70;;
19951;SDS011;10137;49.406;19.484;2024-03-29T07:55:36;1.47;;;0.70;;
19951;SDS011;10137;49.406;19.484;2024-03-29T07:58:04;0.80;;;0.50;;
19951;SDS011;10137;49.406;19.484;2024-03-29T08:00:32;3.17;;;1.60;;
19951;SDS011;10137;49.406;19.484;2024-03-29T08:02:59;1.00;;;0.70;;
19951;SDS011;10137;49.406;19.484;2024-03-29T08:05:26;2.17;;;0.70;;
19951;SDS011;10137;49.406;19.484;2024-03-29T08:07:54;1.83;;;0.70;;
19951;SDS011;10137;49.406;19.484;2024-03-29T08:10:21;1.37;;;0.70;;
19951;SDS011;10137;49.406;19.484;2024-03-29T08:12:48;1.30;;;0.60;;
19951;SDS011;10137;49.406;19.484;2024-03-29T08:15:15;1.93;;;0.60;;
19951;SDS011;10137;49.406;19.484;2024-03-29T08:17:43;1.33;;;0.60;;
19951;SDS011;10137;49.406;19.484;2024-03-29T08:20:10;1.23;;;0.60;;
19951;SDS011;10137;49.406;19.484;2024-03-29T08:22:36;2.80;;;0.70;;
19951;SDS011;10137;49.406;19.484;2024-03-29T08:25:04;2.57;;;0.80;;
19951;SDS011;10137;49.406;19.484;2024-03-29T08:27:31;1.20;;;0.80;;
19951;SDS011;10137;49.406;19.484;2024-03-29T08:29:58;1.60;;;0.70;;
19951;SDS011;10137;49.406;19.484;2024-03-29T08:32:24;1.87;;;0.77;;
19951;SDS011;10137;49.406;19.484;2024-03-29T08:34:51;2.47;;;0.80;;
19951;SDS011;10137;49.406;19.484;2024-03-29T08:37:18;1.87;;;0.67;;
19951;SDS011;10137;49.406;19.484;2024-03-29T08:39:44;1.63;;;0.60;;
19951;SDS011;10137;49.406;19.484;2024-03-29T08:42:11;1.93;;;0.50;;
19951;SDS011;10137;49.406;19.484;2024-03-29T08:44:38;2.60;;;0.90;;
19951;SDS011;10137;49.406;19.484;2024-03-29T08:47:05;1.93;;;0.80;;
19951;SDS011;10137;49.406;19.484;2024-03-29T08:49:32;1.70;;;0.70;;
19951;SDS011;10137;49.406;19.484;2024-03-29T08:51:58;1.70;;;0.80;;
19951;SDS011;10137;49.406;19.484;2024-03-29T08:54:29;1.83;;;0.73;;
19951;SDS011;10137;49.406;19.484;2024-03-29T08:56:56;1.27;;;0.70;;
19951;SDS011;10137;49.406;19.484;2024-03-29T08:59:24;1.80;;;0.70;;
19951;SDS011;10137;49.406;19.484;2024-03-29T09:01:51;0.80;;;0.60;;
19951;SDS011;10137;49.406;19.484;2024-03-29T09:04:18;0.93;;;0.60;;
19951;SDS011;10137;49.406;19.484;2024-03-29T09:06:45;2.70;;;0.70;;
19951;SDS011;10137;49.406;19.484;2024-03-29T09:09:11;3.00;;;0.70;;
19951;SDS011;10137;49.406;19.484;2024-03-29T09:11:38;2.47;;;0.60;;
19951;SDS011;10137;49.406;19.484;2024-03-29T09:14:05;1.37;;;0.60;;
19951;SDS011;10137;49.406;19.484;2024-03-29T09:16:34;5.10;;;1.00;;
19951;SDS011;10137;49.406;19.484;2024-03-29T09:19:01;1.43;;;0.63;;
19951;SDS011;10137;49.406;19.484;2024-03-29T09:21:28;1.93;;;0.80;;
19951;SDS011;10137;49.406;19.484;2024-03-29T09:23:54;1.40;;;0.73;;
19951;SDS011;10137;49.406;19.484;2024-03-29T09:26:21;1.40;;;0.50;;
19951;SDS011;10137;49.406;19.484;2024-03-29T09:28:48;1.43;;;0.70;;
19951;SDS011;10137;49.406;19.484;2024-03-29T09:31:14;4.33;;;0.60;;
19951;SDS011;10137;49.406;19.484;2024-03-29T09:33:41;0.60;;;0.47;;
19951;SDS011;10137;49.406;19.484;2024-03-29T09:36:07;0.97;;;0.60;;
19951;SDS011;10137;49.406;19.484;2024-03-29T09:38:35;2.30;;;1.30;;
19951;SDS011;10137;49.406;19.484;2024-03-29T09:41:15;2.43;;;0.77;;
19951;SDS011;10137;49.406;19.484;2024-03-29T09:43:43;2.20;;;0.50;;
19951;SDS011;10137;49.406;19.484;2024-03-29T09:46:11;0.60;;;0.60;;
19951;SDS011;10137;49.406;19.484;2024-03-29T09:48:39;1.03;;;0.57;;
19951;SDS011;10137;49.406;19.484;2024-03-29T09:51:08;0.60;;;0.40;;
19951;SDS011;10137;49.406;19.484;2024-03-29T09:53:38;0.90;;;0.50;;
19951;SDS011;10137;49.406;19.484;2024-03-29T09:56:06;0.50;;;0.50;;
19951;SDS011;10137;49.406;19.484;2024-03-29T09:58:34;0.57;;;0.43;;
19951;SDS011;10137;49.406;19.484;2024-03-29T10:01:02;2.53;;;0.70;;
19951;SDS011;10137;49.406;19.484;2024-03-29T10:03:31;3.43;;;0.60;;
19951;SDS011;10137;49.406;19.484;2024-03-29T10:06:02;1.23;;;0.73;;
19951;SDS011;10137;49.406;19.484;2024-03-29T10:08:30;1.30;;;0.70;;
19951;SDS011;10137;49.406;19.484;2024-03-29T10:10:57;0.60;;;0.57;;
19951;SDS011;10137;49.406;19.484;2024-03-29T10:13:24;0.70;;;0.40;;
19951;SDS011;10137;49.406;19.484;2024-03-29T10:15:51;3.93;;;0.70;;
19951;SDS011;10137;49.406;19.484;2024-03-29T10:18:20;1.65;;;0.47;;
19951;SDS011;10137;49.406;19.484;2024-03-29T10:21:01;0.85;;;0.40;;
19951;SDS011;10137;49.406;19.484;2024-03-29T10:23:30;0.77;;;0.50;;
19951;SDS011;10137;49.406;19.484;2024-03-29T10:25:57;1.50;;;0.65;;
19951;SDS011;10137;49.406;19.484;2024-03-29T10:30:56;1.50;;;0.60;;
19951;SDS011;10137;49.406;19.484;2024-03-29T10:33:23;0.47;;;0.40;;
19951;SDS011;10137;49.406;19.484;2024-03-29T10:35:53;2.67;;;0.55;;
19951;SDS011;10137;49.406;19.484;2024-03-29T10:38:20;0.55;;;0.40;;
19951;SDS011;10137;49.406;19.484;2024-03-29T10:40:47;1.00;;;0.50;;
19951;SDS011;10137;49.406;19.484;2024-03-29T10:43:15;1.88;;;0.30;;
19951;SDS011;10137;49.406;19.484;2024-03-29T10:45:43;0.75;;;0.30;;
19951;SDS011;10137;49.406;19.484;2024-03-29T10:48:10;1.25;;;0.50;;
19951;SDS011;10137;49.406;19.484;2024-03-29T10:50:37;3.17;;;0.53;;
19951;SDS011;10137;49.406;19.484;2024-03-29T10:53:07;1.03;;;0.50;;
19951;SDS011;10137;49.406;19.484;2024-03-29T10:55:36;1.87;;;0.80;;
19951;SDS011;10137;49.406;19.484;2024-03-29T10:58:04;0.53;;;0.40;;
19951;SDS011;10137;49.406;19.484;2024-03-29T11:00:32;1.43;;;0.40;;
19951;SDS011;10137;49.406;19.484;2024-03-29T11:03:13;1.83;;;0.40;;
19951;SDS011;10137;49.406;19.484;2024-03-29T11:05:50;1.37;;;0.40;;
19951;SDS011;10137;49.406;19.484;2024-03-29T11:08:24;1.37;;;0.30;;
19951;SDS011;10137;49.406;19.484;2024-03-29T11:10:53;1.03;;;0.47;;
19951;SDS011;10137;49.406;19.484;2024-03-29T11:13:32;0.87;;;0.50;;
19951;SDS011;10137;49.406;19.484;2024-03-29T11:16:17;1.40;;;0.40;;
19951;SDS011;10137;49.406;19.484;2024-03-29T11:18:45;3.10;;;0.40;;
19951;SDS011;10137;49.406;19.484;2024-03-29T11:21:13;2.27;;;0.50;;
19951;SDS011;10137;49.406;19.484;2024-03-29T11:23:47;2.03;;;0.30;;
19951;SDS011;10137;49.406;19.484;2024-03-29T11:26:14;1.17;;;0.60;;
19951;SDS011;10137;49.406;19.484;2024-03-29T11:28:47;1.47;;;0.30;;
19951;SDS011;10137;49.406;19.484;2024-03-29T11:31:15;1.53;;;0.50;;
19951;SDS011;10137;49.406;19.484;2024-03-29T11:36:13;2.00;;;0.37;;
19951;SDS011;10137;49.406;19.484;2024-03-29T11:38:41;2.83;;;0.50;;
19951;SDS011;10137;49.406;19.484;2024-03-29T11:41:12;1.77;;;0.60;;
19951;SDS011;10137;49.406;19.484;2024-03-29T11:43:40;1.37;;;0.63;;
19951;SDS011;10137;49.406;19.484;2024-03-29T11:46:09;1.43;;;0.50;;
19951;SDS011;10137;49.406;19.484;2024-03-29T11:48:36;2.93;;;0.60;;
19951;SDS011;10137;49.406;19.484;2024-03-29T11:51:04;3.13;;;0.40;;
19951;SDS011;10137;49.406;19.484;2024-03-29T11:53:33;1.07;;;0.60;;
19951;SDS011;10137;49.406;19.484;2024-03-29T11:56:01;3.20;;;0.73;;
19951;SDS011;10137;49.406;19.484;2024-03-29T11:58:29;2.23;;;0.70;;
19951;SDS011;10137;49.406;19.484;2024-03-29T12:00:58;2.20;;;0.43;;
19951;SDS011;10137;49.406;19.484;2024-03-29T12:03:26;1.17;;;0.60;;
19951;SDS011;10137;49.406;19.484;2024-03-29T12:05:54;1.53;;;0.60;;
19951;SDS011;10137;49.406;19.484;2024-03-29T12:08:23;1.97;;;0.60;;
19951;SDS011;10137;49.406;19.484;2024-03-29T12:10:52;1.90;;;0.50;;
19951;SDS011;10137;49.406;19.484;2024-03-29T12:13:18;2.57;;;0.50;;
19951;SDS011;10137;49.406;19.484;2024-03-29T12:15:45;1.50;;;0.47;;
19951;SDS011;10137;49.406;19.484;2024-03-29T12:18:12;1.87;;;0.60;;
19951;SDS011;10137;49.406;19.484;2024-03-29T12:20:41;1.97;;;0.70;;
19951;SDS011;10137;49.406;19.484;2024-03-29T12:23:11;2.40;;;0.90;;
19951;SDS011;10137;49.406;19.484;2024-03-29T12:25:38;2.27;;;1.10;;
19951;SDS011;10137;49.406;19.484;2024-03-29T12:28:05;1.47;;;0.67;;
19951;SDS011;10137;49.406;19.484;2024-03-29T12:30:32;2.73;;;0.60;;
19951;SDS011;10137;49.406;19.484;2024-03-29T12:33:02;1.77;;;0.70;;
19951;SDS011;10137;49.406;19.484;2024-03-29T12:35:31;1.67;;;0.67;;
19951;SDS011;10137;49.406;19.484;2024-03-29T12:38:07;1.63;;;0.60;;
19951;SDS011;10137;49.406;19.484;2024-03-29T12:40:34;1.80;;;0.60;;
19951;SDS011;10137;49.406;19.484;2024-03-29T12:43:03;2.30;;;0.60;;
19951;SDS011;10137;49.406;19.484;2024-03-29T12:45:33;1.33;;;0.80;;
19951;SDS011;10137;49.406;19.484;2024-03-29T12:48:01;3.47;;;0.60;;
19951;SDS011;10137;49.406;19.484;2024-03-29T12:50:36;1.10;;;0.70;;
19951;SDS011;10137;49.406;19.484;2024-03-29T12:53:06;4.50;;;0.70;;
19951;SDS011;10137;49.406;19.484;2024-03-29T12:55:34;2.03;;;0.60;;
19951;SDS011;10137;49.406;19.484;2024-03-29T12:58:03;1.67;;;0.80;;
19951;SDS011;10137;49.406;19.484;2024-03-29T13:00:35;1.53;;;0.50;;
19951;SDS011;10137;49.406;19.484;2024-03-29T13:03:02;7.10;;;0.80;;
19951;SDS011;10137;49.406;19.484;2024-03-29T13:05:29;2.50;;;0.70;;
19951;SDS011;10137;49.406;19.484;2024-03-29T13:08:02;1.73;;;0.70;;
19951;SDS011;10137;49.406;19.484;2024-03-29T13:10:30;1.97;;;0.80;;
19951;SDS011;10137;49.406;19.484;2024-03-29T13:12:57;3.13;;;0.70;;
19951;SDS011;10137;49.406;19.484;2024-03-29T13:15:25;2.43;;;0.80;;
19951;SDS011;10137;49.406;19.484;2024-03-29T13:17:53;6.53;;;0.90;;
19951;SDS011;10137;49.406;19.484;2024-03-29T13:20:23;1.57;;;0.50;;
19951;SDS011;10137;49.406;19.484;2024-03-29T13:22:54;1.67;;;0.70;;
19951;SDS011;10137;49.406;19.484;2024-03-29T13:25:23;3.80;;;1.13;;
19951;SDS011;10137;49.406;19.484;2024-03-29T13:27:51;2.50;;;0.50;;
19951;SDS011;10137;49.406;19.484;2024-03-29T13:30:23;3.50;;;0.60;;
19951;SDS011;10137;49.406;19.484;2024-03-29T13:33:00;1.67;;;0.77;;
19951;SDS011;10137;49.406;19.484;2024-03-29T13:35:31;2.57;;;0.80;;
19951;SDS011;10137;49.406;19.484;2024-03-29T13:38:05;1.97;;;0.93;;
19951;SDS011;10137;49.406;19.484;2024-03-29T13:40:34;1.97;;;0.60;;
19951;SDS011;10137;49.406;19.484;2024-03-29T13:43:04;2.60;;;0.70;;
19951;SDS011;10137;49.406;19.484;2024-03-29T13:45:33;3.73;;;0.90;;
19951;SDS011;10137;49.406;19.484;2024-03-29T13:48:00;1.43;;;0.77;;
19951;SDS011;10137;49.406;19.484;2024-03-29T13:50:26;1.93;;;0.80;;
19951;SDS011;10137;49.406;19.484;2024-03-29T13:52:53;3.27;;;0.93;;
19951;SDS011;10137;49.406;19.484;2024-03-29T13:55:20;1.20;;;0.83;;
19951;SDS011;10137;49.406;19.484;2024-03-29T13:57:50;3.80;;;0.90;;
19951;SDS011;10137;49.406;19.484;2024-03-29T14:00:18;2.37;;;0.60;;
19951;SDS011;10137;49.406;19.484;2024-03-29T14:02:44;2.10;;;0.73;;
19951;SDS011;10137;49.406;19.484;2024-03-29T14:05:11;5.47;;;0.90;;
19951;SDS011;10137;49.406;19.484;2024-03-29T14:07:39;4.47;;;0.90;;
19951;SDS011;10137;49.406;19.484;2024-03-29T14:10:05;2.60;;;0.97;;
19951;SDS011;10137;49.406;19.484;2024-03-29T14:12:33;3.33;;;0.70;;
19951;SDS011;10137;49.406;19.484;2024-03-29T14:14:59;3.70;;;0.70;;
19951;SDS011;10137;49.406;19.484;2024-03-29T14:17:26;2.90;;;0.83;;
19951;SDS011;10137;49.406;19.484;2024-03-29T14:19:53;4.90;;;0.90;;
19951;SDS011;10137;49.406;19.484;2024-03-29T14:22:20;3.63;;;1.07;;
19951;SDS011;10137;49.406;19.484;2024-03-29T14:24:48;2.10;;;0.80;;
19951;SDS011;10137;49.406;19.484;2024-03-29T14:27:15;5.20;;;0.83;;
19951;SDS011;10137;49.406;19.484;2024-03-29T14:29:42;5.17;;;1.50;;
19951;SDS011;10137;49.406;19.484;2024-03-29T14:32:11;2.33;;;1.17;;
19951;SDS011;10137;49.406;19.484;2024-03-29T14:34:38;3.20;;;0.70;;
19951;SDS011;10137;49.406;19.484;2024-03-29T14:37:09;1.57;;;0.80;;
19951;SDS011;10137;49.406;19.484;2024-03-29T14:39:38;2.87;;;0.67;;
19951;SDS011;10137;49.406;19.484;2024-03-29T14:42:07;3.87;;;1.00;;
19951;SDS011;10137;49.406;19.484;2024-03-29T14:44:36;4.10;;;1.43;;